Fairdealing, Missouri
Current Conditions -  °F | °C
As of 6:53 PM on Tuesday 27 Jan 2015 (Local Time) from KPOF Reporting Station
Clear Clear  
Wind Chill: 43°   Ceiling: Unl
Heat Index: 43°   Visibility: 10mi
Dew Point: 35°   Wind: 3mph
Humidity: 74%   Direction: 70°ENE
Pressure: 30.2"   Gusts: NA
Location:  36.66°N, 90.62°W
Report Text: KPOF 280053Z AUTO 07003KT 10SM CLR 06/02 A3020 RMK AO2 SLP230 T00610017
Loading
Personal Weather Stations






























Interactive Weather Map New forecast layout! Learn more

10-Day Weather Forecast

Advertisements
Track Severe Weather on mobile